createdAt,value
2018-08-18T00:00:18.358Z,14.70
2018-08-18T00:02:47.063Z,14.77
2018-08-18T00:05:16.527Z,14.81
2018-08-18T00:07:45.194Z,14.86
2018-08-18T00:10:16.230Z,14.93
2018-08-18T00:12:45.894Z,15.01
2018-08-18T00:15:14.684Z,15.14
2018-08-18T00:17:43.367Z,15.15
2018-08-18T00:20:15.076Z,15.19
2018-08-18T00:22:43.605Z,15.19
2018-08-18T00:25:12.219Z,15.19
2018-08-18T00:27:40.826Z,15.21
2018-08-18T00:30:15.567Z,15.24
2018-08-18T00:32:44.554Z,15.23
2018-08-18T00:35:13.771Z,15.28
2018-08-18T00:37:42.375Z,15.30
2018-08-18T00:40:12.086Z,15.10
2018-08-18T00:42:41.020Z,15.38
2018-08-18T00:45:11.350Z,15.38
2018-08-18T00:47:40.334Z,15.37
2018-08-18T00:50:09.899Z,15.40
2018-08-18T00:52:38.786Z,15.39
2018-08-18T00:55:07.572Z,15.39
2018-08-18T00:57:36.203Z,15.41
2018-08-18T01:00:06.890Z,15.45
2018-08-18T01:02:35.798Z,15.45
2018-08-18T01:05:05.619Z,15.46
2018-08-18T01:07:34.784Z,15.48
2018-08-18T01:10:03.779Z,15.48
2018-08-18T01:12:33.263Z,15.51
2018-08-18T01:15:01.836Z,15.55
2018-08-18T01:17:30.511Z,15.59
2018-08-18T01:19:59.868Z,15.60
2018-08-18T01:22:28.497Z,15.62
2018-08-18T01:24:57.143Z,15.66
2018-08-18T01:27:25.770Z,15.70
2018-08-18T01:29:59.698Z,15.72
2018-08-18T01:32:28.426Z,15.75
2018-08-18T01:34:57.031Z,15.77
2018-08-18T01:37:25.602Z,15.81
2018-08-18T01:39:55.346Z,15.84
2018-08-18T01:42:24.335Z,15.89
2018-08-18T01:44:53.923Z,15.90
2018-08-18T01:47:22.966Z,15.87
2018-08-18T01:49:51.595Z,15.88
2018-08-18T01:52:23.370Z,15.89
2018-08-18T01:54:52.712Z,15.85
2018-08-18T01:57:22.486Z,15.84
2018-08-18T01:59:51.361Z,15.80
2018-08-18T02:02:22.536Z,15.74
2018-08-18T02:04:51.423Z,15.74
2018-08-18T02:07:30.768Z,15.72
2018-08-18T02:09:59.362Z,15.71
2018-08-18T02:12:28.195Z,15.76
2018-08-18T02:14:57.264Z,15.76
2018-08-18T02:17:33.641Z,15.74
2018-08-18T02:20:02.641Z,15.72
2018-08-18T02:22:32.058Z,15.72
2018-08-18T02:25:01.151Z,15.70
2018-08-18T02:27:29.665Z,15.69
2018-08-18T02:30:09.532Z,15.71
2018-08-18T02:32:39.194Z,15.73
2018-08-18T02:35:08.687Z,15.78
2018-08-18T02:37:38.288Z,15.80
2018-08-18T02:40:09.347Z,15.80
2018-08-18T02:42:38.483Z,15.81
2018-08-18T02:45:08.346Z,15.82
2018-08-18T02:47:37.386Z,15.82
2018-08-18T02:50:07.258Z,15.81
2018-08-18T02:52:36.401Z,15.83
2018-08-18T02:55:07.250Z,14.40
2018-08-18T02:57:38.650Z,15.80
2018-08-18T03:00:09.187Z,15.78
2018-08-18T03:02:38.667Z,15.74
2018-08-18T03:05:07.712Z,15.71
2018-08-18T03:07:39.400Z,15.70
2018-08-18T03:10:14.475Z,15.70
2018-08-18T03:12:45.922Z,15.73
2018-08-18T03:15:34.347Z,15.73
2018-08-18T03:18:02.985Z,15.74
2018-08-18T03:20:31.518Z,15.74
2018-08-18T03:23:00.043Z,15.74
2018-08-18T03:25:39.689Z,15.71
2018-08-18T03:28:08.327Z,15.56
2018-08-18T03:30:38.187Z,15.72
2018-08-18T03:33:07.043Z,15.73
2018-08-18T03:35:35.665Z,15.72
2018-08-18T03:38:04.243Z,15.73
2018-08-18T03:40:32.812Z,15.73
2018-08-18T03:43:01.314Z,15.75
2018-08-18T03:45:29.839Z,15.73
2018-08-18T03:47:58.472Z,15.71
2018-08-18T03:50:41.186Z,15.73
2018-08-18T03:53:09.715Z,15.73
2018-08-18T03:55:39.427Z,15.74
2018-08-18T03:58:08.675Z,15.76
2018-08-18T04:00:37.278Z,15.77
2018-08-18T04:03:06.023Z,15.76
2018-08-18T04:05:34.683Z,15.76
2018-08-18T04:08:03.315Z,15.81
2018-08-18T04:10:31.974Z,15.82
2018-08-18T04:13:02.221Z,15.82
2018-08-18T04:15:30.824Z,15.82
2018-08-18T04:18:03.495Z,15.83
2018-08-18T04:20:32.026Z,15.83
2018-08-18T04:23:01.780Z,15.83
2018-08-18T04:25:30.307Z,15.86
2018-08-18T04:27:58.837Z,15.84
2018-08-18T04:30:27.323Z,15.83
2018-08-18T04:32:59.803Z,15.83
2018-08-18T04:35:29.454Z,15.85
2018-08-18T04:37:59.050Z,15.91
2018-08-18T04:40:27.830Z,15.96
2018-08-18T04:42:56.794Z,16.01
2018-08-18T04:45:25.535Z,16.06
2018-08-18T04:47:54.155Z,16.10
2018-08-18T04:50:23.210Z,16.13
2018-08-18T04:52:53.974Z,16.16
2018-08-18T04:55:22.843Z,16.21
2018-08-18T04:57:51.661Z,16.26
2018-08-18T05:00:20.400Z,16.34
2018-08-18T05:02:53.146Z,16.42
2018-08-18T05:05:27.041Z,16.12
2018-08-18T05:07:57.174Z,16.49
2018-08-18T05:10:25.907Z,16.53
2018-08-18T05:12:54.459Z,16.55
2018-08-18T05:15:23.007Z,16.57
2018-08-18T05:17:51.637Z,16.59
2018-08-18T05:20:22.928Z,16.60
2018-08-18T05:22:51.587Z,16.61
2018-08-18T05:25:27.078Z,16.64
2018-08-18T05:27:56.270Z,16.66
2018-08-18T05:30:25.417Z,16.67
2018-08-18T05:32:54.046Z,16.69
2018-08-18T05:35:22.731Z,16.69
2018-08-18T05:37:51.318Z,16.71
2018-08-18T05:40:19.942Z,16.70
2018-08-18T05:42:48.686Z,16.70
2018-08-18T05:45:27.300Z,16.69
2018-08-18T05:47:56.154Z,16.68
2018-08-18T05:50:26.536Z,16.69
2018-08-18T05:52:58.198Z,16.74
2018-08-18T05:55:27.101Z,16.78
2018-08-18T05:57:55.623Z,16.80
2018-08-18T06:00:25.471Z,16.85
2018-08-18T06:02:59.630Z,16.92
2018-08-18T06:05:30.058Z,16.93
2018-08-18T06:07:59.503Z,17.04
2018-08-18T06:10:28.693Z,17.12
2018-08-18T06:12:58.288Z,17.14
2018-08-18T06:15:27.027Z,17.19
2018-08-18T06:17:55.616Z,17.25
2018-08-18T06:20:24.210Z,17.28
2018-08-18T06:22:52.824Z,17.34
2018-08-18T06:25:21.515Z,17.34
2018-08-18T06:27:50.027Z,17.35
2018-08-18T06:30:19.969Z,17.34
2018-08-18T06:32:48.643Z,17.31
2018-08-18T06:35:17.263Z,17.41
2018-08-18T06:37:50.069Z,17.53
2018-08-18T06:40:18.675Z,17.71
2018-08-18T06:42:47.350Z,17.90
2018-08-18T06:45:19.614Z,17.92
2018-08-18T06:47:48.392Z,18.03
2018-08-18T06:50:18.054Z,18.07
2018-08-18T06:52:47.365Z,18.12
2018-08-18T06:55:18.517Z,18.16
2018-08-18T06:57:52.367Z,18.18
2018-08-18T07:00:22.518Z,18.20
2018-08-18T07:02:51.122Z,18.35
2018-08-18T07:05:20.620Z,18.54
2018-08-18T07:07:50.271Z,18.58
2018-08-18T07:10:30.162Z,18.65
2018-08-18T07:13:02.850Z,18.70
2018-08-18T07:15:36.750Z,18.71
2018-08-18T07:18:06.817Z,18.74
2018-08-18T07:20:35.504Z,18.73
2018-08-18T07:23:04.151Z,18.63
2018-08-18T07:25:32.833Z,18.79
2018-08-18T07:28:06.939Z,18.83
2018-08-18T07:30:35.549Z,18.75
2018-08-18T07:33:04.256Z,18.71
2018-08-18T07:35:32.846Z,18.73
2018-08-18T07:38:01.524Z,18.76
2018-08-18T07:40:40.538Z,18.82
2018-08-18T07:43:09.441Z,18.93
2018-08-18T07:45:38.671Z,19.00
2018-08-18T07:48:08.335Z,19.12
2018-08-18T07:50:37.037Z,19.22
2018-08-18T07:53:05.846Z,19.22
2018-08-18T07:55:34.506Z,19.12
2018-08-18T07:58:04.687Z,19.05
2018-08-18T08:00:34.518Z,19.06
2018-08-18T08:03:03.394Z,19.13
2018-08-18T08:05:32.496Z,19.25
2018-08-18T08:08:01.319Z,19.39
2018-08-18T08:10:30.142Z,19.47
2018-08-18T08:12:59.050Z,19.36
2018-08-18T08:15:27.657Z,19.49
2018-08-18T08:17:56.411Z,19.60
2018-08-18T08:20:25.086Z,19.63
2018-08-18T08:22:55.016Z,19.60
2018-08-18T08:25:23.562Z,19.68
2018-08-18T08:27:53.298Z,19.70
2018-08-18T08:30:23.339Z,19.76
2018-08-18T08:32:52.106Z,19.81
2018-08-18T08:35:20.994Z,19.76
2018-08-18T08:37:52.789Z,19.80
2018-08-18T08:40:22.459Z,19.74
2018-08-18T08:42:51.139Z,19.66
2018-08-18T08:45:20.915Z,19.61
2018-08-18T08:47:50.005Z,19.73
2018-08-18T08:50:21.999Z,19.74
2018-08-18T08:52:51.926Z,19.70
2018-08-18T08:55:21.856Z,19.68
2018-08-18T08:57:50.583Z,19.60
2018-08-18T09:00:19.166Z,19.57
2018-08-18T09:02:48.059Z,19.53
2018-08-18T09:05:17.666Z,19.46
2018-08-18T09:07:46.451Z,19.34
2018-08-18T09:10:15.709Z,19.24
2018-08-18T09:12:44.337Z,19.22
2018-08-18T09:15:14.639Z,19.08
2018-08-18T09:17:43.325Z,19.06
2018-08-18T09:20:14.679Z,19.02
2018-08-18T09:22:55.578Z,18.99
2018-08-18T09:25:24.311Z,18.87
2018-08-18T09:27:54.740Z,18.87
2018-08-18T09:30:24.537Z,18.94
2018-08-18T09:32:53.175Z,18.97
2018-08-18T09:35:21.855Z,19.01
2018-08-18T09:37:55.717Z,18.94
2018-08-18T09:40:24.390Z,18.93
2018-08-18T09:42:53.033Z,18.87
2018-08-18T09:45:21.722Z,18.93
2018-08-18T09:47:50.401Z,18.91
2018-08-18T09:50:19.399Z,18.86
2018-08-18T09:52:48.646Z,18.83
2018-08-18T09:55:17.685Z,18.79
2018-08-18T09:57:46.219Z,18.77
2018-08-18T10:00:15.876Z,18.83
2018-08-18T10:02:44.971Z,18.85
2018-08-18T10:05:13.607Z,18.86
2018-08-18T10:07:42.516Z,18.83
2018-08-18T10:10:13.442Z,18.82
2018-08-18T10:12:42.070Z,18.83
2018-08-18T10:15:10.654Z,18.80
2018-08-18T10:17:39.234Z,18.77
2018-08-18T10:20:08.282Z,18.73
2018-08-18T10:22:37.919Z,18.71
2018-08-18T10:25:07.077Z,18.69
2018-08-18T10:27:35.650Z,18.61
2018-08-18T10:30:04.991Z,18.47
2018-08-18T10:32:35.243Z,18.26
2018-08-18T10:35:03.975Z,18.12
2018-08-18T10:37:32.607Z,18.01
2018-08-18T10:40:07.233Z,18.01
2018-08-18T10:42:35.816Z,17.94
2018-08-18T10:45:05.222Z,17.97
2018-08-18T10:47:33.850Z,17.95
2018-08-18T10:50:49.266Z,17.96
2018-08-18T10:53:17.807Z,17.98
2018-08-18T10:55:46.446Z,18.00
2018-08-18T10:58:25.174Z,18.07
2018-08-18T11:00:53.824Z,18.12
2018-08-18T11:03:22.479Z,18.11
2018-08-18T11:05:51.040Z,18.20
2018-08-18T11:08:19.623Z,18.18
2018-08-18T11:10:48.213Z,18.36
2018-08-18T11:13:18.612Z,18.42
2018-08-18T11:15:47.178Z,18.54
2018-08-18T11:18:15.789Z,18.70
2018-08-18T11:20:44.427Z,18.78
2018-08-18T11:23:13.794Z,18.85
2018-08-18T11:25:49.426Z,18.89
2018-08-18T11:28:18.977Z,18.90
2018-08-18T11:30:47.718Z,18.87
2018-08-18T11:33:47.527Z,18.92
2018-08-18T11:36:16.100Z,18.95
2018-08-18T11:38:44.788Z,18.89
2018-08-18T11:41:13.473Z,18.87
2018-08-18T11:43:47.520Z,18.91
2018-08-18T11:46:16.802Z,18.92
2018-08-18T11:48:45.389Z,18.97
2018-08-18T11:51:13.982Z,18.97
2018-08-18T11:53:55.637Z,18.92
2018-08-18T11:56:24.216Z,18.94
2018-08-18T11:59:05.320Z,18.95
2018-08-18T12:01:38.584Z,18.98
2018-08-18T12:04:07.476Z,19.00
2018-08-18T12:06:41.506Z,18.96
2018-08-18T12:09:10.419Z,18.94
2018-08-18T12:11:39.274Z,18.94
2018-08-18T12:14:07.848Z,18.92
2018-08-18T12:16:36.826Z,18.94
2018-08-18T12:19:05.607Z,18.97
2018-08-18T12:21:38.794Z,18.99
2018-08-18T12:24:07.403Z,18.99
2018-08-18T12:26:36.088Z,19.04
2018-08-18T12:29:04.773Z,19.07
2018-08-18T12:31:33.361Z,19.14
2018-08-18T12:34:01.987Z,19.23
2018-08-18T12:36:30.706Z,19.33
2018-08-18T12:38:59.265Z,19.41
2018-08-18T12:41:27.791Z,19.44
2018-08-18T12:43:57.973Z,19.46
2018-08-18T12:46:35.787Z,19.45
2018-08-18T12:49:05.894Z,19.43
2018-08-18T12:51:35.024Z,19.44
2018-08-18T12:54:03.776Z,19.42
2018-08-18T12:56:32.395Z,19.42
2018-08-18T12:59:01.182Z,19.32
2018-08-18T13:01:41.476Z,19.30
2018-08-18T13:04:12.065Z,19.22
2018-08-18T13:06:48.939Z,19.16
2018-08-18T13:09:19.254Z,19.17
2018-08-18T13:11:49.203Z,19.10
2018-08-18T13:14:20.292Z,19.08
2018-08-18T13:16:49.678Z,19.08
2018-08-18T13:19:20.330Z,19.05
2018-08-18T13:21:49.046Z,19.02
2018-08-18T13:24:17.703Z,19.04
2018-08-18T13:26:46.622Z,19.00
2018-08-18T13:29:15.253Z,19.01
2018-08-18T13:31:44.790Z,18.99
2018-08-18T13:34:15.674Z,18.97
2018-08-18T13:36:45.152Z,18.97
2018-08-18T13:39:15.114Z,18.97
2018-08-18T13:41:44.878Z,18.97
2018-08-18T13:44:28.703Z,18.94
2018-08-18T13:46:57.301Z,18.98
2018-08-18T13:49:26.955Z,18.97
2018-08-18T13:51:55.593Z,19.01
2018-08-18T13:54:24.180Z,19.03
2018-08-18T13:56:52.866Z,19.08
2018-08-18T14:02:16.107Z,19.13
2018-08-18T14:04:44.869Z,19.15
2018-08-18T14:07:14.063Z,19.14
2018-08-18T14:09:43.991Z,19.16
2018-08-18T14:12:16.887Z,19.16
2018-08-18T14:14:46.325Z,19.17
2018-08-18T14:17:15.788Z,19.12
2018-08-18T14:19:44.720Z,19.09
2018-08-18T14:22:13.402Z,19.07
2018-08-18T14:24:42.497Z,19.05
2018-08-18T14:27:17.485Z,19.02
2018-08-18T14:29:46.216Z,19.02
2018-08-18T14:32:20.021Z,19.04
2018-08-18T14:34:57.783Z,18.97
2018-08-18T14:37:26.460Z,19.04
2018-08-18T14:39:55.194Z,19.06
2018-08-18T14:42:23.720Z,19.05
2018-08-18T14:44:55.449Z,19.02
2018-08-18T14:47:24.670Z,19.01
2018-08-18T14:50:07.236Z,19.02
2018-08-18T14:52:35.736Z,19.00
2018-08-18T14:55:04.349Z,18.99
2018-08-18T14:57:35.056Z,18.95
2018-08-18T15:00:03.675Z,18.94
2018-08-18T15:02:32.407Z,18.97
2018-08-18T15:05:00.988Z,18.99
2018-08-18T15:07:30.819Z,19.00
2018-08-18T15:09:59.490Z,18.95
2018-08-18T15:12:28.011Z,18.95
2018-08-18T15:14:56.635Z,18.93
2018-08-18T15:17:25.156Z,18.94
2018-08-18T15:19:54.376Z,18.94
2018-08-18T15:22:23.013Z,18.93
2018-08-18T15:24:51.698Z,18.89
2018-08-18T15:27:20.384Z,18.87
2018-08-18T15:29:49.670Z,18.86
2018-08-18T15:32:18.370Z,18.85
2018-08-18T15:34:46.877Z,18.85
2018-08-18T15:37:15.471Z,18.86
2018-08-18T15:39:44.079Z,18.84
2018-08-18T15:42:12.704Z,18.82
2018-08-18T15:44:52.184Z,18.81
2018-08-18T15:47:20.766Z,18.82
2018-08-18T15:49:49.405Z,18.79
2018-08-18T15:52:19.605Z,18.75
2018-08-18T15:54:48.266Z,18.77
2018-08-18T15:57:16.894Z,18.75
2018-08-18T15:59:45.585Z,18.76
2018-08-18T16:02:14.092Z,18.75
2018-08-18T16:04:42.744Z,18.74
2018-08-18T16:07:11.341Z,18.73
2018-08-18T16:09:40.072Z,18.74
2018-08-18T16:12:08.697Z,18.75
2018-08-18T16:14:37.191Z,18.76
2018-08-18T16:17:05.822Z,18.73
2018-08-18T16:19:35.717Z,18.72
2018-08-18T16:22:05.179Z,18.70
2018-08-18T16:24:39.346Z,18.69
2018-08-18T16:27:08.470Z,18.69
2018-08-18T16:29:37.626Z,18.64
2018-08-18T16:32:27.469Z,18.63
2018-08-18T16:35:02.538Z,18.63
2018-08-18T16:37:31.712Z,18.62
2018-08-18T16:40:00.704Z,18.64
2018-08-18T16:42:29.599Z,18.64
2018-08-18T16:44:58.319Z,18.66
2018-08-18T16:47:27.031Z,18.66
2018-08-18T16:49:56.338Z,18.64
2018-08-18T16:52:25.040Z,18.63
2018-08-18T16:54:54.326Z,18.60
2018-08-18T16:57:24.298Z,18.62
2018-08-18T16:59:52.875Z,18.64
2018-08-18T17:02:34.311Z,18.65
2018-08-18T17:05:02.867Z,18.66
2018-08-18T17:07:33.338Z,18.68
2018-08-18T17:10:01.946Z,18.70
2018-08-18T17:12:31.563Z,18.71
2018-08-18T17:15:00.126Z,18.76
2018-08-18T17:17:28.707Z,18.76
2018-08-18T17:19:57.372Z,18.76
2018-08-18T17:22:25.875Z,18.78
2018-08-18T17:24:55.359Z,18.79
2018-08-18T17:27:24.012Z,18.79
2018-08-18T17:29:53.460Z,18.78
2018-08-18T17:32:22.123Z,18.76
2018-08-18T17:34:50.670Z,18.73
2018-08-18T17:37:19.397Z,18.72
2018-08-18T17:39:48.113Z,18.72
2018-08-18T17:42:16.715Z,18.71
2018-08-18T17:44:45.441Z,18.73
2018-08-18T17:47:14.848Z,18.70
2018-08-18T17:49:48.868Z,18.65
2018-08-18T17:52:17.608Z,18.66
2018-08-18T17:55:01.443Z,18.53
2018-08-18T17:57:30.033Z,18.35
2018-08-18T17:59:58.755Z,18.17
2018-08-18T18:02:27.375Z,18.05
2018-08-18T18:05:01.084Z,18.03
2018-08-18T18:07:29.628Z,17.99
2018-08-18T18:09:58.321Z,17.94
2018-08-18T18:12:27.947Z,17.91
2018-08-18T18:14:56.958Z,17.91
2018-08-18T18:17:26.183Z,17.89
2018-08-18T18:19:57.344Z,17.87
2018-08-18T18:22:39.910Z,17.84
2018-08-18T18:25:08.464Z,17.85
2018-08-18T18:27:37.111Z,17.84
2018-08-18T18:30:05.950Z,17.82
2018-08-18T18:32:34.526Z,17.82
2018-08-18T18:35:03.278Z,17.81
2018-08-18T18:37:31.732Z,17.82
2018-08-18T18:40:03.829Z,17.84
2018-08-18T18:42:32.462Z,17.79
2018-08-18T18:45:01.003Z,17.79
2018-08-18T18:47:29.851Z,17.79
2018-08-18T18:49:58.477Z,17.79
2018-08-18T18:52:27.057Z,17.80
2018-08-18T18:54:57.895Z,17.84
2018-08-18T18:57:26.784Z,17.88
2018-08-18T18:59:56.896Z,17.88
2018-08-18T19:02:28.279Z,17.90
2018-08-18T19:04:56.878Z,17.92
2018-08-18T19:07:25.442Z,17.90
2018-08-18T19:09:59.018Z,17.87
2018-08-18T19:12:27.587Z,17.86
2018-08-18T19:14:56.136Z,17.85
2018-08-18T19:17:24.650Z,17.86
2018-08-18T19:20:02.963Z,17.85
2018-08-18T19:22:31.498Z,17.84
2018-08-18T19:25:00.182Z,17.86
2018-08-18T19:27:28.761Z,17.87
2018-08-18T19:29:57.465Z,17.88
2018-08-18T19:32:26.047Z,17.89
2018-08-18T19:34:54.678Z,17.91
2018-08-18T19:37:23.261Z,17.92
2018-08-18T19:39:51.907Z,17.96
2018-08-18T19:42:20.468Z,17.96
2018-08-18T19:44:51.446Z,17.97
2018-08-18T19:47:25.269Z,17.98
2018-08-18T19:49:53.961Z,17.99
2018-08-18T19:52:23.159Z,17.99
2018-08-18T19:54:52.619Z,18.01
2018-08-18T19:57:27.847Z,18.01
2018-08-18T20:00:01.918Z,18.00
2018-08-18T20:02:43.206Z,18.01
2018-08-18T20:05:11.774Z,17.98
2018-08-18T20:07:40.354Z,17.99
2018-08-18T20:10:08.989Z,17.96
2018-08-18T20:12:37.623Z,17.96
2018-08-18T20:15:06.491Z,17.97
2018-08-18T20:17:35.063Z,17.95
2018-08-18T20:20:03.686Z,17.96
2018-08-18T20:22:32.270Z,17.91
2018-08-18T20:25:01.662Z,17.89
2018-08-18T20:27:30.300Z,17.83
2018-08-18T20:29:58.870Z,17.82
2018-08-18T20:32:27.431Z,17.81
2018-08-18T20:34:56.026Z,17.74
2018-08-18T20:37:24.575Z,17.63
2018-08-18T20:39:53.466Z,17.53
2018-08-18T20:42:27.681Z,17.42
2018-08-18T20:44:58.824Z,17.33
2018-08-18T20:47:29.928Z,17.27
2018-08-18T20:49:58.754Z,17.24
2018-08-18T20:52:28.506Z,17.19
2018-08-18T20:54:58.020Z,17.18
2018-08-18T20:57:26.622Z,17.18
2018-08-18T20:59:55.176Z,17.15
2018-08-18T21:02:23.821Z,17.15
2018-08-18T21:05:01.212Z,17.19
2018-08-18T21:07:31.887Z,17.24
2018-08-18T21:10:01.398Z,17.26
2018-08-18T21:12:48.246Z,17.28
2018-08-18T21:15:17.415Z,17.32
2018-08-18T21:17:46.120Z,17.33
2018-08-18T21:20:17.384Z,17.34
2018-08-18T21:22:45.968Z,17.32
2018-08-18T21:25:15.676Z,17.33
2018-08-18T21:27:44.464Z,17.32
2018-08-18T21:30:15.943Z,17.33
2018-08-18T21:32:44.599Z,17.31
2018-08-18T21:35:13.232Z,17.33
2018-08-18T21:37:41.999Z,17.34
2018-08-18T21:40:11.234Z,17.34
2018-08-18T21:42:39.811Z,17.35
2018-08-18T21:45:11.151Z,17.33
2018-08-18T21:47:39.778Z,17.33
2018-08-18T21:50:08.338Z,17.33
2018-08-18T21:52:36.949Z,17.34
2018-08-18T21:55:05.671Z,17.34
2018-08-18T21:57:46.505Z,17.37
2018-08-18T22:00:15.764Z,17.37
2018-08-18T22:02:44.483Z,17.39
2018-08-18T22:05:14.353Z,17.41
2018-08-18T22:07:50.772Z,17.40
2018-08-18T22:10:19.330Z,17.44
2018-08-18T22:12:47.985Z,17.44
2018-08-18T22:15:21.230Z,17.47
2018-08-18T22:17:52.327Z,17.46
2018-08-18T22:20:22.287Z,17.46
2018-08-18T22:22:51.971Z,17.44
2018-08-18T22:25:20.470Z,17.42
2018-08-18T22:27:53.402Z,17.34
2018-08-18T22:30:25.899Z,17.33
2018-08-18T22:32:54.528Z,17.29
2018-08-18T22:35:23.934Z,17.26
2018-08-18T22:37:52.546Z,17.28
2018-08-18T22:40:21.109Z,17.21
2018-08-18T22:42:49.770Z,17.13
2018-08-18T22:45:29.004Z,17.03
2018-08-18T22:47:57.618Z,17.01
2018-08-18T22:50:26.214Z,16.99
2018-08-18T22:52:55.369Z,17.01
2018-08-18T22:55:23.904Z,17.02
2018-08-18T22:57:58.666Z,17.04
2018-08-18T23:00:27.506Z,17.09
2018-08-18T23:02:56.091Z,17.11
2018-08-18T23:05:24.631Z,17.14
2018-08-18T23:07:54.999Z,17.13
2018-08-18T23:10:26.110Z,17.13
2018-08-18T23:12:54.680Z,17.13
2018-08-18T23:15:23.191Z,17.10
2018-08-18T23:17:51.798Z,17.07
2018-08-18T23:20:20.534Z,17.08
2018-08-18T23:22:59.435Z,17.05
2018-08-18T23:25:30.374Z,17.03
2018-08-18T23:27:59.128Z,17.01
2018-08-18T23:30:35.798Z,17.01
2018-08-18T23:33:06.154Z,16.97
2018-08-18T23:35:35.272Z,16.95
2018-08-18T23:38:04.227Z,16.94
2018-08-18T23:40:33.203Z,16.94
2018-08-18T23:43:01.891Z,16.92
2018-08-18T23:45:36.623Z,16.91
2018-08-18T23:48:07.141Z,16.90
2018-08-18T23:50:37.246Z,16.90
2018-08-18T23:53:07.834Z,16.90
2018-08-18T23:55:39.619Z,16.91
2018-08-18T23:58:08.123Z,16.90
